EDTY

Adolf Würth Airport

Schwäbisch Hall, Germany
METAR EDTY 191320Z 04005KT 360V100 8000 NSC 18/10 Q1022
Observed Flight Rules
Oct-19 @ 13:20 UTC (21 minutes ago) Marginal Visual Flight Rules
Wind Visibility Clouds
40° at 5 knots 7,998 meters
  • Clear skies
Temperatures Readings
Current 18°C / 64°F
Dewpoint 10°C / 50°F
Humidity 60%
Altimeter 30.18" Hg
Pressure 1022 hPa
Elevation 400
METAR EDTY 191320Z 04005KT 360V100 8000 NSC 18/10 Q1022
Observed Flight Rules
Oct-19 @ 13:20 UTC
(21 minutes ago)
MVFR
Wind Visibility
40° at 5 knots 7,998 meters
Clouds
  • Clear skies
Temperature Dewpoint
18°C / 64°F 10°C / 50°F
Humidity Altimeter Pressure
60% 30.18" Hg 1022 hPa